Aérodrome :
LOGIN :

S'inscrire | Disclaimer

   EN    FR    IT 

 










Légende :    VFR   VFR Marginal   IFR   IFR Intensif   IFR Très Intensif
Visi : 
Plafond : 
>= 8 km
>= 3000ft
5 à 8 km
1000 à 3000 ft
1500m à 5 km
500 à 1000 ft
800 à 1500m
200 à 500 ft
< 800m
< 200 ft
Symboles :   Orages  Brouillard  Fortes neiges  Fortes précipitations  Vent > 20 kt
SIGMETs :   Divers  Orages  Givrage  Turbulence  Onde Orograph.  Cendres Volcan.







- Altitude de l'aérodrome : 70 ft
- Code IATA : LEI


LEAM - Almeria

DERNIER METAR :
  • 181430Z 19008KT 160V230 CAVOK 26/20 Q1013

METARs EXPIRÉS :
  • 181400Z 19006KT 160V220 CAVOK 25/20 Q1014
  • 181330Z 20005KT 160V250 CAVOK 25/20 Q1014
  • 181300Z 21006KT 170V240 CAVOK 25/20 Q1014
  • 181230Z 20008KT 150V240 9999 FEW030 26/20 Q1014
  • 181200Z 20007KT 170V240 9999 FEW030 25/20 Q1015

TAF TAF LEAM
Valide du 18 à 15h jusqu'au 19 à 15h UTC


181400Z 1815/1915 19006KT 9999 FEW020 TX36/1915Z TN22/1904Z
BECMG 1907/1910 07016KT
TEMPO 1910/1915 07020G30KT
Pas de NOTAMs connus pour ce terrain.



MET'MAP, la Météo Aéronautique d'un coup d'oeil ! - Copyright ORBIFLY Décembre 2007 - Disclaimer

ORBIFLY MET'MAP TEAM :

Programmation & Développement : Alexandra Zaïnal
Conception & Développement : Baudouin d'Aumeries
Co-Programmation & Développement : Marc-Olivier Méhu
Soutien technique & logistique : Manuel Goepfert

Contact : metmap@orbifly.com




SOURCES & CREDITS :

   NOAA